Time;durP1;ratioP1;P1;durP2;ratioP2;P2;SDS_P1;SDS_P2;PMS_P1;PMS_P2;Temp;Humidity;BMP_temperature;BMP_pressure;BME280_temperature;BME280_humidity;BME280_pressure;Samples;Min_cycle;Max_cycle;Signal;HPM_P1;HPM_P2
2022/01/28 00:01:36;;;;;;;79.00;43.38;;;;;;;-4.60;100.00;97133.00;5001160;28;20612;-61
2022/01/28 00:04:12;;;;;;;72.57;40.70;;;;;;;-4.50;100.00;97119.16;5010275;28;20029;-61
2022/01/28 00:06:38;;;;;;;72.18;40.63;;;;;;;-4.47;100.00;97116.56;5006617;28;20034;-61
2022/01/28 00:09:03;;;;;;;78.18;45.35;;;;;;;-4.37;100.00;97111.34;5009788;28;20096;-61
2022/01/28 00:11:29;;;;;;;87.07;41.33;;;;;;;-4.16;100.00;97097.41;5009308;28;20036;-62
2022/01/28 00:14:07;;;;;;;78.72;40.95;;;;;;;-4.22;100.00;97113.75;5009737;28;20032;-62
2022/01/28 00:38:35;;;;;;;67.88;38.22;;;;;;;-4.33;100.00;97152.44;5009374;28;20512;-61
2022/01/28 00:41:02;;;;;;;75.78;40.10;;;;;;;-4.35;100.00;97167.03;5007453;28;20621;-61
2022/01/28 00:43:27;;;;;;;69.75;38.63;;;;;;;-4.33;100.00;97187.59;5008444;28;20087;-62
2022/01/28 00:45:53;;;;;;;75.75;40.03;;;;;;;-4.37;100.00;97189.34;5009196;28;20022;-61
2022/01/28 00:48:18;;;;;;;69.63;39.55;;;;;;;-4.40;100.00;97191.94;5009393;28;20026;-61
2022/01/28 00:50:44;;;;;;;72.47;42.05;;;;;;;-4.36;100.00;97187.63;5009758;28;20053;-61
2022/01/28 00:53:11;;;;;;;81.82;43.28;;;;;;;-4.13;100.00;97178.84;5009244;28;20068;-61
2022/01/28 00:55:36;;;;;;;70.88;40.40;;;;;;;-4.30;100.00;97185.00;5007885;28;20022;-61
2022/01/28 00:58:02;;;;;;;72.95;39.80;;;;;;;-4.30;100.00;97176.44;5009156;28;20030;-61
2022/01/28 01:00:27;;;;;;;71.57;38.85;;;;;;;-4.23;100.00;97168.63;5009631;28;20096;-61
2022/01/28 01:02:53;;;;;;;77.35;40.13;;;;;;;-4.09;100.00;97165.94;5012853;28;20044;-61
2022/01/28 01:05:18;;;;;;;74.53;40.60;;;;;;;-4.21;100.00;97155.75;5012736;28;20026;-62
2022/01/28 01:07:44;;;;;;;73.90;39.47;;;;;;;-4.12;100.00;97152.25;5013369;28;20493;-61
2022/01/28 01:10:10;;;;;;;69.35;39.63;;;;;;;-4.08;100.00;97154.78;5012610;28;20029;-61
2022/01/28 01:12:42;;;;;;;71.57;37.65;;;;;;;-3.90;100.00;97160.56;5008142;28;20026;-61
2022/01/28 01:15:09;;;;;;;68.32;35.78;;;;;;;-3.90;100.00;97165.72;5012489;28;20030;-61
2022/01/28 01:17:48;;;;;;;62.13;36.17;;;;;;;-3.99;100.00;97169.25;5012267;28;20100;-61
2022/01/28 01:22:49;;;;;;;61.20;36.20;;;;;;;-4.24;100.00;97177.22;5012354;28;20383;-61
2022/01/28 01:25:22;;;;;;;71.18;37.35;;;;;;;-4.20;100.00;97184.06;5012373;28;20030;-61
2022/01/28 01:27:53;;;;;;;63.70;36.42;;;;;;;-4.18;100.00;97181.44;5012726;28;20014;-61
2022/01/28 01:30:18;;;;;;;66.65;36.80;;;;;;;-4.24;100.00;97176.38;5012309;28;20018;-61
2022/01/28 01:32:44;;;;;;;65.85;37.33;;;;;;;-4.30;100.00;97182.41;5012044;28;20034;-61
2022/01/28 01:35:09;;;;;;;61.65;35.65;;;;;;;-4.28;100.00;97182.41;5012325;28;20025;-62
2022/01/28 01:37:35;;;;;;;65.70;37.92;;;;;;;-4.28;100.00;97182.41;5012514;28;20101;-61
2022/01/28 01:40:00;;;;;;;60.20;36.33;;;;;;;-4.37;100.00;97194.47;5005209;28;20117;-62
2022/01/28 01:42:42;;;;;;;62.83;35.47;;;;;;;-4.36;100.00;97210.78;5011973;28;20026;-62
2022/01/28 01:53:32;;;;;;;64.32;37.75;;;;;;;-4.25;100.00;97206.38;5012495;28;20064;-61
2022/01/28 01:55:58;;;;;;;58.22;34.90;;;;;;;-4.27;100.00;97210.69;5011011;28;20029;-61
2022/01/28 01:58:30;;;;;;;61.20;35.13;;;;;;;-4.05;100.00;97211.34;5011523;28;20095;-62
2022/01/28 02:00:56;;;;;;;63.20;37.63;;;;;;;-4.10;100.00;97204.53;5011364;28;20485;-62
2022/01/28 02:03:21;;;;;;;63.72;34.65;;;;;;;-4.07;100.00;97202.78;5011975;28;20061;-62
2022/01/28 02:05:47;;;;;;;63.45;36.72;;;;;;;-4.06;100.00;97196.78;5011550;28;20053;-61
2022/01/28 02:08:12;;;;;;;55.85;33.97;;;;;;;-4.16;100.00;97190.00;5011593;28;20018;-61
2022/01/28 02:10:38;;;;;;;63.28;34.28;;;;;;;-4.11;100.00;97188.22;5011456;28;20068;-61
2022/01/28 02:13:03;;;;;;;65.22;36.85;;;;;;;-4.14;100.00;97179.72;5011378;28;20033;-62
2022/01/28 02:15:28;;;;;;;55.88;33.67;;;;;;;-4.11;100.00;97172.78;5011339;28;20492;-61
2022/01/28 02:17:54;;;;;;;56.55;36.42;;;;;;;-4.06;100.00;97171.03;5011140;28;20042;-61
2022/01/28 02:20:33;;;;;;;60.40;36.00;;;;;;;-4.16;100.00;97174.56;5011321;28;20032;-61
2022/01/28 02:22:58;;;;;;;66.82;36.17;;;;;;;-4.25;100.00;97174.66;5011376;28;20087;-61
2022/01/28 02:25:27;;;;;;;62.38;35.53;;;;;;;-4.34;100.00;97175.59;5011103;28;20021;-61
2022/01/28 02:27:54;;;;;;;64.95;35.92;;;;;;;-4.20;100.00;97178.91;5011467;28;20033;-61
2022/01/28 02:30:20;;;;;;;61.60;36.47;;;;;;;-4.33;100.00;97187.59;5011098;28;20026;-62
2022/01/28 02:32:48;;;;;;;63.33;36.53;;;;;;;-4.24;100.00;97184.94;5010967;28;20033;-61
2022/01/28 02:35:13;;;;;;;64.97;38.17;;;;;;;-4.40;100.00;97191.94;5011158;28;20018;-61
2022/01/28 02:37:39;;;;;;;59.63;35.42;;;;;;;-4.32;100.00;97192.72;5010093;28;20098;-61
2022/01/28 02:40:06;;;;;;;62.10;36.25;;;;;;;-4.36;100.00;97179.91;5011143;28;20559;-61
2022/01/28 02:43:27;;;;;;;64.38;36.15;;;;;;;-4.27;100.00;97181.56;5010863;28;20026;-62
2022/01/28 02:45:26;;;;;;;67.50;38.08;;;;;;;-4.19;100.00;97169.44;4995879;28;20069;-61
2022/01/28 02:47:57;;;;;;;63.33;32.85;;;;;;;-4.07;100.00;97164.19;5010604;28;20036;-61
2022/01/28 02:50:24;;;;;;;57.80;34.70;;;;;;;-4.01;100.00;97154.69;5012611;28;20033;-61
2022/01/28 02:53:02;;;;;;;61.53;34.92;;;;;;;-3.95;100.00;97136.63;5011956;28;20110;-61
2022/01/28 02:55:30;;;;;;;55.50;34.75;;;;;;;-4.05;100.00;97135.88;5008957;28;20026;-61
2022/01/28 02:58:13;;;;;;;56.90;35.75;;;;;;;-4.12;100.00;97131.66;5011981;28;20018;-61
2022/01/28 03:00:40;;;;;;;62.72;37.17;;;;;;;-4.07;100.00;97125.59;5007977;28;20026;-62
2022/01/28 03:03:06;;;;;;;61.33;35.28;;;;;;;-4.05;100.00;97123.88;5011819;28;20459;-61
2022/01/28 03:05:34;;;;;;;63.55;41.42;;;;;;;-4.16;100.00;97133.41;5012149;28;20064;-61
2022/01/28 03:08:02;;;;;;;56.63;33.88;;;;;;;-4.34;100.00;97124.16;5012408;28;20037;-62
2022/01/28 03:10:41;;;;;;;60.70;34.13;;;;;;;-4.44;100.00;97123.41;5012323;28;20405;-61
2022/01/28 03:15:33;;;;;;;62.55;36.08;;;;;;;-4.56;100.00;97110.66;5012263;28;20561;-61
2022/01/28 03:20:42;;;;;;;66.40;37.10;;;;;;;-4.37;100.00;97109.63;5012262;28;20524;-61
2022/01/28 03:23:07;;;;;;;59.05;35.13;;;;;;;-4.32;100.00;97118.13;5011703;28;20030;-61
2022/01/28 03:25:39;;;;;;;61.20;34.83;;;;;;;-4.23;100.00;97118.91;5011982;28;20346;-62
2022/01/28 03:28:04;;;;;;;60.75;34.53;;;;;;;-4.30;100.00;97122.44;5011986;28;20118;-61
2022/01/28 03:30:30;;;;;;;58.22;34.08;;;;;;;-4.22;100.00;97123.19;5012043;28;20555;-61
2022/01/28 03:32:55;;;;;;;58.00;33.53;;;;;;;-4.25;100.00;97121.50;5011893;28;20026;-61
2022/01/28 03:35:21;;;;;;;57.17;31.58;;;;;;;-4.30;100.00;97119.88;5012102;28;20450;-62
2022/01/28 03:37:46;;;;;;;55.33;33.33;;;;;;;-4.35;100.00;97113.03;5011886;28;20105;-61
2022/01/28 03:40:12;;;;;;;60.15;34.17;;;;;;;-4.30;100.00;97109.56;5011777;28;20026;-61
2022/01/28 03:42:38;;;;;;;55.78;34.75;;;;;;;-4.40;100.00;97114.78;5011778;28;20022;-61
2022/01/28 03:45:05;;;;;;;53.58;31.42;;;;;;;-4.35;100.00;97118.16;5011709;28;20556;-61
2022/01/28 03:47:30;;;;;;;55.05;32.42;;;;;;;-4.32;100.00;97117.28;5011638;28;20427;-61
2022/01/28 03:49:56;;;;;;;56.53;34.22;;;;;;;-4.39;100.00;97115.66;5011758;28;20033;-61
2022/01/28 03:52:21;;;;;;;58.67;33.30;;;;;;;-4.51;100.00;97104.63;5011570;28;20402;-61
2022/01/28 03:54:47;;;;;;;58.78;34.63;;;;;;;-4.52;100.00;97096.94;5011675;28;20022;-61
2022/01/28 03:57:12;;;;;;;59.45;34.67;;;;;;;-4.55;100.00;97094.38;5011512;28;20029;-61
2022/01/28 03:59:38;;;;;;;60.25;34.17;;;;;;;-4.48;100.00;97096.03;5011748;28;20539;-62
2022/01/28 04:02:05;;;;;;;59.22;33.53;;;;;;;-4.47;100.00;97103.72;5011628;28;20018;-61
2022/01/28 04:12:28;;;;;;;56.72;33.60;;;;;;;-4.66;100.00;97118.47;5011240;28;20040;-61
2022/01/28 04:17:25;;;;;;;50.72;33.08;;;;;;;-4.55;100.00;97117.50;5011333;28;20398;-61
2022/01/28 04:19:51;;;;;;;56.22;34.08;;;;;;;-4.56;100.00;97124.38;5011326;28;20032;-61
2022/01/28 04:22:21;;;;;;;55.03;34.53;;;;;;;-4.51;100.00;97121.78;5011419;28;20469;-61
2022/01/28 04:24:46;;;;;;;57.35;34.22;;;;;;;-4.60;100.00;97117.56;5010344;28;20034;-61
2022/01/28 04:27:12;;;;;;;55.80;34.15;;;;;;;-4.71;100.00;97135.66;5010892;28;20124;-61
2022/01/28 04:29:38;;;;;;;59.83;34.65;;;;;;;-4.80;100.00;97135.72;5011700;28;20097;-61
2022/01/28 04:32:04;;;;;;;55.80;34.90;;;;;;;-4.84;100.00;97139.19;5011271;28;20072;-61
2022/01/28 04:34:29;;;;;;;54.83;33.58;;;;;;;-4.84;100.00;97152.88;5009829;28;20060;-61
2022/01/28 04:42:25;;;;;;;55.45;33.35;;;;;;;-4.96;100.00;97164.13;5011715;28;20460;-61
2022/01/28 04:45:06;;;;;;;59.38;34.53;;;;;;;-4.96;100.00;97164.13;5015028;28;20437;-61
2022/01/28 04:58:27;;;;;;;49.78;32.05;;;;;;;-4.92;100.00;97201.75;5014691;28;20159;-61
2022/01/28 05:24:42;;;;;;;67.90;37.40;;;;;;;-4.57;100.00;97222.06;5014393;28;20414;-62
2022/01/28 05:27:03;;;;;;;64.00;35.95;;;;;;;-4.63;100.00;97235.84;5014228;28;20108;-61
2022/01/28 05:29:28;;;;;;;72.47;39.40;;;;;;;-4.68;100.00;97241.00;5014171;28;20038;-61
2022/01/28 05:31:54;;;;;;;68.15;38.42;;;;;;;-4.61;100.00;97237.50;5014073;28;20044;-61
2022/01/28 05:34:23;;;;;;;67.63;40.72;;;;;;;-4.63;100.00;97244.38;5014076;28;20038;-61
2022/01/28 05:36:49;;;;;;;60.03;37.30;;;;;;;-4.58;100.00;97240.91;5014054;28;20030;-61
2022/01/28 05:39:14;;;;;;;75.88;42.28;;;;;;;-4.52;100.00;97246.88;5012944;28;20057;-61
2022/01/28 05:41:40;;;;;;;72.90;42.20;;;;;;;-4.59;100.00;97258.09;5013653;28;20115;-61
2022/01/28 05:44:05;;;;;;;67.88;40.00;;;;;;;-4.65;100.00;97258.97;5013872;28;20080;-61
2022/01/28 05:46:31;;;;;;;63.08;39.35;;;;;;;-4.54;100.00;97263.16;5013391;28;20037;-62
2022/01/28 05:48:57;;;;;;;63.75;38.88;;;;;;;-4.60;100.00;97267.50;5013951;28;20466;-61
2022/01/28 05:51:23;;;;;;;65.10;37.42;;;;;;;-4.62;100.00;97261.50;5013143;28;20419;-61
2022/01/28 05:53:48;;;;;;;65.82;39.67;;;;;;;-4.63;100.00;97259.81;5013785;28;20030;-62
2022/01/28 05:56:14;;;;;;;66.90;39.35;;;;;;;-4.68;100.00;97253.84;5013648;28;20034;-61
2022/01/28 05:58:39;;;;;;;65.88;39.60;;;;;;;-4.63;100.00;97262.38;5013642;28;20026;-61
2022/01/28 06:01:05;;;;;;;61.35;40.03;;;;;;;-4.70;100.00;97265.88;5013688;28;20117;-62
2022/01/28 06:03:30;;;;;;;65.40;37.92;;;;;;;-4.68;100.00;97259.00;5013564;28;20038;-61
2022/01/28 06:05:55;;;;;;;69.60;38.70;;;;;;;-4.65;100.00;97253.81;5012857;28;20030;-61
2022/01/28 06:08:21;;;;;;;67.30;39.28;;;;;;;-4.75;100.00;97265.06;5012699;28;20400;-61
2022/01/28 06:10:46;;;;;;;66.15;37.60;;;;;;;-4.82;100.00;97261.66;5013519;28;20030;-61
2022/01/28 06:13:12;;;;;;;65.22;38.40;;;;;;;-4.66;100.00;97253.81;5011380;28;20041;-61
2022/01/28 06:15:41;;;;;;;66.40;37.47;;;;;;;-4.69;100.00;97247.00;5012955;28;20030;-61
2022/01/28 06:18:08;;;;;;;67.75;38.60;;;;;;;-4.71;100.00;97253.88;5012922;28;20049;-61
2022/01/28 06:20:33;;;;;;;62.65;38.17;;;;;;;-4.62;100.00;97269.22;5012314;28;20049;-61
2022/01/28 06:22:59;;;;;;;64.50;39.90;;;;;;;-4.73;100.00;97268.47;5013111;28;20034;-61
2022/01/28 06:25:24;;;;;;;61.47;37.63;;;;;;;-4.69;100.00;97262.44;5013259;28;20026;-62
2022/01/28 06:27:50;;;;;;;66.32;39.08;;;;;;;-4.78;100.00;97257.31;5012939;28;20034;-61
2022/01/28 06:30:16;;;;;;;65.97;36.85;;;;;;;-4.73;100.00;97260.75;5012389;28;20393;-61
2022/01/28 06:32:43;;;;;;;61.15;36.47;;;;;;;-4.70;100.00;97262.44;5012493;28;20037;-61
2022/01/28 06:35:08;;;;;;;67.43;38.97;;;;;;;-4.80;100.00;97266.75;5012922;28;20022;-60
2022/01/28 06:37:38;;;;;;;66.30;39.00;;;;;;;-4.87;100.00;97265.94;5012839;28;20068;-61
2022/01/28 06:40:06;;;;;;;64.40;38.67;;;;;;;-4.89;100.00;97271.09;5012497;28;20113;-61
2022/01/28 06:42:32;;;;;;;57.95;36.97;;;;;;;-4.91;100.00;97272.84;5012786;28;20460;-61
2022/01/28 06:44:57;;;;;;;64.68;38.60;;;;;;;-4.86;100.00;97279.66;5012947;28;20114;-61
2022/01/28 06:47:22;;;;;;;74.88;44.53;;;;;;;-4.86;100.00;97280.53;5012824;28;20069;-61
2022/01/28 06:49:48;;;;;;;71.10;44.95;;;;;;;-4.80;100.00;97280.47;5012593;28;20026;-61
2022/01/28 06:52:13;;;;;;;66.43;39.47;;;;;;;-4.79;100.00;97277.06;5024877;28;20038;-62
2022/01/28 06:54:39;;;;;;;64.30;36.88;;;;;;;-4.63;100.00;97277.81;5012426;28;20030;-61
2022/01/28 06:57:04;;;;;;;65.70;38.67;;;;;;;-4.57;100.00;97276.91;5010111;28;20440;-61
2022/01/28 06:59:30;;;;;;;71.57;41.15;;;;;;;-4.72;100.00;97285.59;5011241;28;20100;-61
2022/01/28 07:01:55;;;;;;;65.78;37.72;;;;;;;-4.68;100.00;97281.25;5009675;28;20037;-62
2022/01/28 07:04:20;;;;;;;60.00;38.10;;;;;;;-4.75;100.00;97280.47;5012281;28;20844;-60
2022/01/28 07:06:46;;;;;;;66.78;38.33;;;;;;;-4.76;100.00;97282.16;5012393;28;20041;-61
2022/01/28 07:09:12;;;;;;;69.85;42.60;;;;;;;-4.84;100.00;97298.50;5011232;28;20060;-62
2022/01/28 07:11:37;;;;;;;79.00;40.20;;;;;;;-5.01;100.00;97291.72;5009040;28;20121;-59
2022/01/28 07:14:03;;;;;;;65.43;39.20;;;;;;;-5.07;100.00;97294.31;5012007;28;20038;-60
2022/01/28 07:16:30;;;;;;;69.22;37.53;;;;;;;-5.06;100.00;97298.59;5012271;28;20065;-61
2022/01/28 07:18:55;;;;;;;63.60;38.15;;;;;;;-5.20;100.00;97296.09;5011838;28;20053;-61
2022/01/28 07:21:21;;;;;;;72.45;42.22;;;;;;;-5.22;100.00;97303.78;5012124;28;20502;-60
2022/01/28 07:23:46;;;;;;;78.00;44.22;;;;;;;-5.18;100.00;97308.06;5011918;28;20026;-61
2022/01/28 07:26:12;;;;;;;69.60;39.28;;;;;;;-5.07;100.00;97314.88;5011794;28;20389;-60
2022/01/28 07:28:39;;;;;;;68.65;39.05;;;;;;;-5.07;100.00;97312.28;5011893;28;20108;-61
2022/01/28 07:31:04;;;;;;;68.30;40.00;;;;;;;-4.94;100.00;97319.09;5012097;28;20030;-61
2022/01/28 07:33:30;;;;;;;72.57;38.78;;;;;;;-4.87;100.00;97316.50;5011906;28;20533;-60
2022/01/28 07:35:55;;;;;;;72.80;41.13;;;;;;;-4.92;100.00;97330.22;5011158;28;20034;-61
2022/01/28 07:38:21;;;;;;;70.30;43.55;;;;;;;-4.92;100.00;97327.66;5010871;28;20026;-61
2022/01/28 07:40:46;;;;;;;71.55;42.45;;;;;;;-4.82;100.00;97323.34;5011350;28;20553;-60
2022/01/28 07:43:11;;;;;;;69.47;40.88;;;;;;;-4.84;100.00;97321.63;5010288;28;20040;-61
2022/01/28 07:45:37;;;;;;;73.75;40.78;;;;;;;-4.83;100.00;97326.75;5010550;28;20410;-61
2022/01/28 07:48:03;;;;;;;71.35;39.15;;;;;;;-5.01;100.00;97325.09;5010285;28;20036;-60
2022/01/28 07:50:28;;;;;;;77.20;43.60;;;;;;;-5.11;100.00;97336.28;5006367;28;20057;-62
2022/01/28 07:52:54;;;;;;;78.57;44.10;;;;;;;-5.13;100.00;97338.00;5005353;28;20080;-51
2022/01/28 07:55:19;;;;;;;80.53;44.00;;;;;;;-4.95;100.00;97343.09;5010059;28;20057;-51
2022/01/28 07:57:45;;;;;;;70.45;42.17;;;;;;;-5.07;100.00;97345.69;5010066;28;20515;-50
2022/01/28 08:00:13;;;;;;;73.63;39.63;;;;;;;-4.95;100.00;97345.66;5009918;28;20532;-50
2022/01/28 08:02:40;;;;;;;74.88;40.10;;;;;;;-4.79;100.00;97348.13;5009389;28;20037;-52
2022/01/28 08:05:05;;;;;;;71.38;41.15;;;;;;;-5.01;100.00;97337.94;5010047;28;20026;-50
2022/01/28 08:07:31;;;;;;;80.50;42.65;;;;;;;-4.88;100.00;97333.63;5009040;28;20104;-50
2022/01/28 08:09:56;;;;;;;76.82;43.50;;;;;;;-4.77;100.00;97336.13;5010937;28;20061;-50
2022/01/28 08:12:21;;;;;;;74.50;41.42;;;;;;;-4.70;100.00;97337.84;5010664;28;20034;-51
2022/01/28 08:14:47;;;;;;;77.95;41.85;;;;;;;-4.93;100.00;97335.34;5010966;28;20049;-51
2022/01/28 08:17:12;;;;;;;64.13;40.50;;;;;;;-4.87;100.00;97340.47;5009343;28;20063;-52
2022/01/28 08:19:38;;;;;;;75.20;41.97;;;;;;;-4.93;100.00;97332.78;5010958;28;20030;-49
2022/01/28 08:22:04;;;;;;;72.97;41.10;;;;;;;-5.04;100.00;97333.69;5009345;28;20025;-49
2022/01/28 08:24:30;;;;;;;82.72;43.10;;;;;;;-4.92;100.00;97339.63;5008399;28;20033;-53
2022/01/28 08:26:55;;;;;;;86.10;44.53;;;;;;;-4.84;100.00;97339.59;5009238;28;20041;-49
2022/01/28 08:29:21;;;;;;;79.30;44.20;;;;;;;-4.79;100.00;97346.44;5010075;28;20029;-49
2022/01/28 08:31:46;;;;;;;79.85;41.40;;;;;;;-4.89;100.00;97350.75;5009997;28;20022;-51
2022/01/28 08:34:12;;;;;;;78.82;41.75;;;;;;;-4.91;100.00;97360.19;5009708;28;20037;-50
2022/01/28 08:36:37;;;;;;;82.85;42.90;;;;;;;-4.90;100.00;97366.16;5009704;28;20493;-50
2022/01/28 08:39:05;;;;;;;77.40;42.55;;;;;;;-4.77;100.00;97372.13;5009224;28;20030;-53
2022/01/28 08:41:31;;;;;;;79.85;43.80;;;;;;;-4.95;100.00;97373.91;5010579;28;20120;-52
2022/01/28 08:43:57;;;;;;;82.97;44.60;;;;;;;-4.89;100.00;97379.03;5010462;28;20022;-50
2022/01/28 08:46:22;;;;;;;75.47;41.13;;;;;;;-4.81;100.00;97375.56;5009586;28;20025;-50
2022/01/28 08:48:47;;;;;;;69.70;38.90;;;;;;;-4.83;100.00;97387.56;5009986;28;20100;-50
2022/01/28 08:51:13;;;;;;;72.25;40.60;;;;;;;-5.01;100.00;97386.75;5008296;28;20123;-51
2022/01/28 08:53:39;;;;;;;81.85;42.53;;;;;;;-5.06;100.00;97385.94;5007217;28;20025;-50
2022/01/28 08:56:05;;;;;;;76.68;41.40;;;;;;;-5.09;100.00;97398.78;5009874;28;20112;-53
2022/01/28 08:58:31;;;;;;;87.22;42.83;;;;;;;-5.01;100.00;97393.63;5009972;28;20105;-50
2022/01/28 09:00:56;;;;;;;84.80;47.13;;;;;;;-4.86;100.00;97391.03;5010215;28;20026;-50
2022/01/28 09:03:22;;;;;;;83.03;44.08;;;;;;;-4.87;100.00;97398.72;5008440;28;20119;-49
2022/01/28 09:05:48;;;;;;;88.28;48.55;;;;;;;-4.77;100.00;97398.69;5008115;28;20026;-50
2022/01/28 09:08:14;;;;;;;88.15;44.05;;;;;;;-4.52;100.00;97395.16;5009220;28;20042;-55
2022/01/28 09:10:44;;;;;;;83.13;44.35;;;;;;;-4.39;100.00;97396.78;5009298;28;20033;-50
2022/01/28 09:13:22;;;;;;;74.93;45.60;;;;;;;-4.39;100.00;97399.34;5009552;28;20041;-51
2022/01/28 09:15:48;;;;;;;80.43;44.33;;;;;;;-4.14;100.00;97403.53;5009745;28;20037;-50
2022/01/28 09:18:13;;;;;;;84.50;46.65;;;;;;;-4.08;100.00;97400.91;5008315;28;20578;-53
2022/01/28 09:20:39;;;;;;;81.50;45.28;;;;;;;-4.02;100.00;97408.56;5008601;28;20038;-51
2022/01/28 09:23:06;;;;;;;69.85;43.70;;;;;;;-3.90;100.00;97405.91;5011644;28;20060;-53
2022/01/28 09:25:34;;;;;;;79.07;43.88;;;;;;;-3.69;100.00;97406.63;5008709;28;20061;-54
2022/01/28 09:27:59;;;;;;;78.75;43.75;;;;;;;-3.70;99.79;97415.22;5012823;28;20037;-53
2022/01/28 09:30:25;;;;;;;80.18;44.95;;;;;;;-3.68;100.00;97413.47;5012815;28;20022;-54
2022/01/28 09:32:51;;;;;;;80.47;46.80;;;;;;;-3.62;100.00;97410.84;5012788;28;20053;-51
2022/01/28 09:35:16;;;;;;;78.57;44.20;;;;;;;-3.49;100.00;97405.59;5013749;28;20038;-53
2022/01/28 09:37:42;;;;;;;79.75;44.47;;;;;;;-3.27;98.70;97397.69;5011317;28;20022;-53
2022/01/28 09:40:08;;;;;;;84.20;48.47;;;;;;;-3.14;98.13;97394.09;5012250;28;20032;-54
2022/01/28 09:42:37;;;;;;;91.85;48.83;;;;;;;-3.26;98.69;97394.22;5010313;28;20760;-50
2022/01/28 09:45:04;;;;;;;79.00;47.13;;;;;;;-3.25;98.52;97399.34;5011825;28;20037;-53
2022/01/28 09:47:30;;;;;;;79.15;47.45;;;;;;;-3.22;98.60;97407.06;5013085;28;20029;-51
2022/01/28 09:49:56;;;;;;;80.35;44.70;;;;;;;-3.09;98.35;97402.66;5012872;28;20411;-50
2022/01/28 09:52:22;;;;;;;78.70;47.47;;;;;;;-2.93;97.88;97395.59;5011743;28;20033;-52
2022/01/28 09:54:47;;;;;;;89.80;48.67;;;;;;;-2.71;97.35;97395.34;5011327;28;20034;-51
2022/01/28 09:57:18;;;;;;;83.80;45.47;;;;;;;-2.54;95.85;97400.28;5012064;28;20113;-50
2022/01/28 09:59:43;;;;;;;86.35;47.85;;;;;;;-2.40;96.18;97396.69;5013082;28;20030;-52
2022/01/28 10:02:09;;;;;;;90.03;49.58;;;;;;;-2.18;94.61;97411.00;5012838;28;20033;-51
2022/01/28 10:04:34;;;;;;;79.30;47.35;;;;;;;-2.09;93.61;97414.31;5012372;28;20072;-50
2022/01/28 10:07:12;;;;;;;87.90;50.70;;;;;;;-1.97;93.59;97413.31;5012137;28;20463;-50
2022/01/28 10:09:54;;;;;;;80.35;47.58;;;;;;;-1.59;93.37;97411.88;5012921;28;20025;-49
2022/01/28 10:12:26;;;;;;;77.57;45.65;;;;;;;-1.38;91.33;97420.13;5012071;28;20056;-53
2022/01/28 10:15:15;;;;;;;69.85;44.33;;;;;;;-1.24;89.95;97443.16;5012084;28;20045;-52
2022/01/28 10:17:58;;;;;;;67.45;43.40;;;;;;;-1.26;89.97;97444.94;5011964;28;20510;-48
2022/01/28 10:20:25;;;;;;;68.43;43.33;;;;;;;-1.27;89.40;97449.22;5012474;28;20118;-49
2022/01/28 10:22:57;;;;;;;74.00;45.13;;;;;;;-1.06;89.85;97441.97;5012428;28;20049;-51
2022/01/28 10:25:26;;;;;;;63.90;42.40;;;;;;;-1.13;88.61;97446.41;5012839;28;20022;-53
2022/01/28 10:28:04;;;;;;;61.08;40.63;;;;;;;-1.02;89.18;97447.06;5011317;28;20022;-53
2022/01/28 10:30:34;;;;;;;63.22;39.55;;;;;;;-0.72;89.07;97454.31;5012028;28;20029;-50
2022/01/28 10:33:22;;;;;;;63.47;41.83;;;;;;;-0.72;87.67;97452.56;5010725;28;20591;-51
2022/01/28 10:35:51;;;;;;;55.83;38.40;;;;;;;-0.45;87.71;97445.13;5010410;28;20161;-50
2022/01/28 10:38:33;;;;;;;60.03;40.08;;;;;;;-0.35;86.16;97452.72;5011122;28;20414;-51
2022/01/28 10:41:06;;;;;;;56.72;36.65;;;;;;;-0.34;85.84;97444.91;5011304;28;20557;-53
2022/01/28 10:43:31;;;;;;;52.42;37.90;;;;;;;-0.05;86.21;97435.69;5026832;28;20483;-52
2022/01/28 10:46:06;;;;;;;60.95;40.13;;;;;;;0.37;85.46;97439.94;5012067;28;20056;-54
2022/01/28 10:48:31;;;;;;;52.80;36.22;;;;;;;0.66;83.09;97429.75;5004703;28;20029;-50
2022/01/28 10:50:58;;;;;;;54.58;38.20;;;;;;;0.92;82.72;97441.22;5011550;28;20052;-50
2022/01/28 10:53:27;;;;;;;54.13;38.45;;;;;;;0.89;82.56;97436.09;5010449;28;20038;-50
2022/01/28 10:55:54;;;;;;;46.08;34.78;;;;;;;1.12;82.11;97430.31;5010484;28;20390;-54
2022/01/28 10:58:23;;;;;;;46.70;34.22;;;;;;;1.20;82.27;97422.31;5009532;28;20160;-50
2022/01/28 11:00:50;;;;;;;49.63;36.20;;;;;;;1.51;82.20;97417.13;5011855;28;20025;-51
2022/01/28 11:03:17;;;;;;;51.08;35.17;;;;;;;1.85;82.28;97418.75;5012021;28;20034;-51
2022/01/28 11:05:44;;;;;;;50.05;33.67;;;;;;;2.27;80.13;97414.06;5011085;28;20513;-54
2022/01/28 11:08:11;;;;;;;48.50;33.45;;;;;;;2.48;78.64;97422.91;5011637;28;20034;-50
2022/01/28 11:10:38;;;;;;;48.08;32.00;;;;;;;2.53;79.04;97408.00;5011514;28;20033;-53
2022/01/28 11:13:03;;;;;;;44.00;31.30;;;;;;;2.55;78.45;97413.16;5009376;28;20029;-51
2022/01/28 11:15:30;;;;;;;46.90;31.77;;;;;;;2.57;79.14;97407.03;5010483;28;20413;-52
2022/01/28 11:17:58;;;;;;;38.10;29.50;;;;;;;2.94;77.78;97410.13;5010271;28;20057;-50
2022/01/28 11:20:30;;;;;;;42.00;32.38;;;;;;;3.03;78.18;97414.19;5010949;28;20025;-51
2022/01/28 11:23:05;;;;;;;41.90;30.42;;;;;;;3.14;77.22;97404.22;5011477;28;20501;-51
2022/01/28 11:25:42;;;;;;;45.30;32.42;;;;;;;3.19;76.40;97408.41;5002069;28;20520;-50
2022/01/28 11:28:10;;;;;;;40.50;29.75;;;;;;;3.48;76.36;97396.13;5007503;28;20037;-54
2022/01/28 11:30:43;;;;;;;47.78;31.88;;;;;;;3.45;74.81;97389.28;5010652;28;20060;-52
2022/01/28 11:33:11;;;;;;;54.55;35.85;;;;;;;3.73;75.45;97383.91;5010086;28;20037;-52
2022/01/28 11:35:36;;;;;;;39.88;29.40;;;;;;;3.59;73.86;97380.94;5011391;28;20157;-50
2022/01/28 11:38:24;;;;;;;45.78;29.60;;;;;;;3.75;75.16;97378.59;5011335;28;20567;-51
2022/01/28 11:40:57;;;;;;;47.67;32.63;;;;;;;3.65;74.83;97367.72;5007857;28;20017;-52
2022/01/28 11:43:25;;;;;;;44.78;30.95;;;;;;;3.83;75.25;97366.16;5005579;28;20037;-50
2022/01/28 11:46:10;;;;;;;40.60;28.73;;;;;;;4.10;72.61;97365.16;4997081;28;20413;-56
2022/01/28 11:49:21;;;;;;;46.65;31.48;;;;;;;4.38;71.85;97357.03;5008546;28;20045;-50
2022/01/28 11:51:47;;;;;;;39.78;28.48;;;;;;;4.83;71.18;97355.19;5011205;28;20457;-56
2022/01/28 11:54:15;;;;;;;38.58;29.42;;;;;;;4.93;70.27;97352.19;5010982;28;20109;-49
2022/01/28 11:57:10;;;;;;;41.08;30.10;;;;;;;5.24;69.58;97351.69;5008788;28;20097;-49
2022/01/28 11:59:35;;;;;;;35.20;27.33;;;;;;;5.81;67.57;97352.66;4997277;28;20042;-48
2022/01/28 12:02:00;;;;;;;38.85;27.55;;;;;;;5.72;66.37;97348.69;5006450;28;20499;-47
2022/01/28 12:04:26;;;;;;;37.10;28.23;;;;;;;6.02;66.96;97346.44;5008380;28;20025;-48
2022/01/28 12:07:09;;;;;;;36.80;28.05;;;;;;;5.90;66.21;97344.41;5011584;28;20501;-51
2022/01/28 12:09:37;;;;;;;32.45;26.05;;;;;;;5.93;66.84;97335.53;5011434;28;20022;-54
2022/01/28 12:12:03;;;;;;;37.78;27.55;;;;;;;6.02;66.68;97333.38;5009529;28;20026;-52
2022/01/28 12:15:19;;;;;;;35.47;27.45;;;;;;;5.87;65.62;97321.84;5010404;28;20077;-51
2022/01/28 12:17:50;;;;;;;33.47;26.30;;;;;;;6.44;65.33;97314.81;5011324;28;20188;-52
2022/01/28 12:20:15;;;;;;;33.83;26.50;;;;;;;6.75;63.87;97310.66;5010115;28;20402;-52
2022/01/28 12:22:59;;;;;;;35.67;26.75;;;;;;;6.39;64.69;97314.19;4998786;28;20036;-51
2022/01/28 12:25:37;;;;;;;32.22;25.92;;;;;;;6.10;64.52;97296.41;5004453;28;20056;-51
2022/01/28 12:28:40;;;;;;;36.78;26.27;;;;;;;5.79;66.09;97295.25;5009406;28;20034;-51
2022/01/28 12:31:29;;;;;;;36.28;25.92;;;;;;;5.55;67.00;97295.47;5004592;28;20038;-51
2022/01/28 12:33:58;;;;;;;33.05;26.23;;;;;;;5.53;68.38;97299.94;5009004;28;20030;-48
2022/01/28 12:36:30;;;;;;;28.63;23.42;;;;;;;5.94;65.72;97287.56;5009837;28;20034;-55
2022/01/28 12:40:02;;;;;;;29.13;23.70;;;;;;;5.93;67.50;97291.09;5004744;28;20025;-53
2022/01/28 12:42:05;;;;;;;31.48;23.95;;;;;;;5.61;66.53;97281.25;4996432;28;20046;-54
2022/01/28 12:44:32;;;;;;;40.15;29.42;;;;;;;5.54;67.46;97274.63;5009906;28;20038;-50
2022/01/28 12:47:00;;;;;;;29.58;23.60;;;;;;;5.52;67.87;97274.69;5009889;28;20030;-52